Time;durP1;ratioP1;P1;durP2;ratioP2;P2;SDS_P1;SDS_P2;PMS_P1;PMS_P2;Temp;Humidity;BMP_temperature;BMP_pressure;BME280_temperature;BME280_humidity;BME280_pressure;Samples;Min_cycle;Max_cycle;Signal;HPM_P1;HPM_P2
2021/05/09 00:00:45;;;;;;;3.00;2.13;;;9.00;99.90;;;;;;4944855;28;20549;-87
2021/05/09 00:03:11;;;;;;;2.07;1.97;;;9.00;99.90;;;;;;4926152;28;20788;-86
2021/05/09 00:05:37;;;;;;;2.20;2.10;;;9.00;99.90;;;;;;4940926;28;20255;-87
2021/05/09 00:08:03;;;;;;;2.10;1.90;;;9.00;99.90;;;;;;4972789;28;20683;-86
2021/05/09 00:10:29;;;;;;;3.30;2.20;;;9.00;99.90;;;;;;4936515;28;20741;-87
2021/05/09 00:12:55;;;;;;;2.10;1.90;;;9.00;99.90;;;;;;4929926;28;20541;-88
2021/05/09 00:15:24;;;;;;;3.10;1.83;;;9.00;99.90;;;;;;4936876;28;20300;-87
2021/05/09 00:17:50;;;;;;;2.30;2.20;;;8.90;99.90;;;;;;4944591;28;20475;-87
2021/05/09 00:20:17;;;;;;;1.67;1.57;;;8.90;99.90;;;;;;4937240;28;20486;-86
2021/05/09 00:22:42;;;;;;;2.10;2.00;;;8.90;99.90;;;;;;4947253;28;20192;-87
2021/05/09 00:25:09;;;;;;;2.37;2.17;;;8.80;99.90;;;;;;4944410;28;20567;-86
2021/05/09 00:27:35;;;;;;;1.90;1.80;;;8.80;99.90;;;;;;4945226;28;20201;-87
2021/05/09 00:30:02;;;;;;;2.10;1.93;;;8.80;99.90;;;;;;4944381;28;20801;-87
2021/05/09 00:32:28;;;;;;;1.97;1.87;;;8.90;99.90;;;;;;4943993;28;20280;-86
2021/05/09 00:34:53;;;;;;;1.90;1.80;;;8.80;99.90;;;;;;4941850;28;21045;-87
2021/05/09 00:37:19;;;;;;;4.00;1.90;;;8.80;99.90;;;;;;4934814;28;20297;-86
2021/05/09 00:39:45;;;;;;;2.60;1.80;;;8.80;99.90;;;;;;4945535;28;20196;-86
2021/05/09 00:42:11;;;;;;;1.73;1.53;;;8.80;99.90;;;;;;4943697;28;20422;-86
2021/05/09 00:44:37;;;;;;;1.83;1.73;;;8.80;99.90;;;;;;4943542;28;20241;-86
2021/05/09 00:47:08;;;;;;;2.37;1.97;;;8.80;99.90;;;;;;4946095;28;20437;-86
2021/05/09 00:49:36;;;;;;;1.80;1.70;;;8.80;99.90;;;;;;4956532;28;20188;-86
2021/05/09 00:52:01;;;;;;;2.60;2.37;;;8.80;99.90;;;;;;4943350;28;20533;-86
2021/05/09 00:54:28;;;;;;;2.40;2.10;;;8.80;99.90;;;;;;4943167;28;20532;-86
2021/05/09 00:56:55;;;;;;;2.10;1.90;;;8.80;99.90;;;;;;4943136;28;20179;-85
2021/05/09 00:59:23;;;;;;;1.80;1.70;;;8.80;99.90;;;;;;4974839;28;20441;-85
2021/05/09 01:01:49;;;;;;;2.10;2.00;;;8.80;99.90;;;;;;4937904;28;20536;-85
2021/05/09 01:04:16;;;;;;;2.00;1.90;;;8.80;99.90;;;;;;4941162;28;20465;-85
2021/05/09 01:06:44;;;;;;;2.23;2.10;;;8.80;99.90;;;;;;4927200;28;20462;-85
2021/05/09 01:09:11;;;;;;;1.57;1.47;;;8.70;99.90;;;;;;4973031;28;20825;-85
2021/05/09 01:11:37;;;;;;;2.17;2.07;;;8.60;99.90;;;;;;4943755;28;20444;-85
2021/05/09 01:14:03;;;;;;;1.87;1.77;;;8.60;99.90;;;;;;4945414;28;20448;-86
2021/05/09 01:16:29;;;;;;;2.30;2.10;;;8.60;99.90;;;;;;4941793;28;20294;-85
2021/05/09 01:18:55;;;;;;;2.17;2.07;;;8.50;99.90;;;;;;4934144;28;20889;-85
2021/05/09 01:21:21;;;;;;;2.60;1.73;;;8.60;99.90;;;;;;4967155;28;20197;-85
2021/05/09 01:23:46;;;;;;;1.97;1.87;;;8.60;99.90;;;;;;4959042;28;20443;-85
2021/05/09 01:26:12;;;;;;;2.37;2.17;;;8.60;99.90;;;;;;4941128;28;20208;-85
2021/05/09 01:28:38;;;;;;;2.20;2.10;;;8.60;99.90;;;;;;4940811;28;20218;-83
2021/05/09 01:31:03;;;;;;;2.20;1.90;;;8.70;99.90;;;;;;4944324;28;20677;-84
2021/05/09 01:33:29;;;;;;;2.30;2.10;;;8.80;99.90;;;;;;4941920;28;20256;-84
2021/05/09 01:35:55;;;;;;;2.03;1.93;;;8.90;99.90;;;;;;4934800;28;20344;-84
2021/05/09 01:38:21;;;;;;;2.23;2.03;;;8.80;99.90;;;;;;4944951;28;20513;-84
2021/05/09 01:40:47;;;;;;;2.30;2.20;;;8.90;99.90;;;;;;4964840;28;20475;-84
2021/05/09 01:43:12;;;;;;;1.90;1.80;;;8.90;99.90;;;;;;4962174;28;20656;-83
2021/05/09 01:45:38;;;;;;;2.13;1.90;;;8.90;99.90;;;;;;4961212;28;20659;-84
2021/05/09 01:48:04;;;;;;;1.80;1.70;;;8.70;99.90;;;;;;4946856;28;20197;-84
2021/05/09 01:50:30;;;;;;;2.23;1.90;;;8.70;99.90;;;;;;4941664;28;20195;-84
2021/05/09 01:52:56;;;;;;;1.80;1.70;;;8.60;99.90;;;;;;4947996;28;20899;-84
2021/05/09 01:55:24;;;;;;;2.10;2.00;;;8.50;99.90;;;;;;4943594;28;20824;-84
2021/05/09 01:57:50;;;;;;;2.80;1.90;;;8.50;99.90;;;;;;4946320;28;20203;-84
2021/05/09 02:00:18;;;;;;;1.80;1.70;;;8.40;99.90;;;;;;4939589;28;20537;-84
2021/05/09 02:02:44;;;;;;;2.03;1.93;;;8.30;99.90;;;;;;4942813;28;20192;-83
2021/05/09 02:05:10;;;;;;;2.20;2.07;;;8.20;99.90;;;;;;4961195;28;20484;-83
2021/05/09 02:07:36;;;;;;;1.80;1.70;;;8.20;99.90;;;;;;4949548;28;20455;-83
2021/05/09 02:10:07;;;;;;;2.27;2.07;;;8.20;99.90;;;;;;4946250;28;20445;-83
2021/05/09 02:12:34;;;;;;;2.20;2.10;;;8.10;99.90;;;;;;4942910;28;20182;-83
2021/05/09 02:15:00;;;;;;;2.70;2.40;;;8.10;99.90;;;;;;4947817;28;20479;-86
2021/05/09 02:17:26;;;;;;;2.30;2.20;;;8.20;99.90;;;;;;4963802;28;20449;-86
2021/05/09 02:19:51;;;;;;;2.30;2.17;;;8.10;99.90;;;;;;4941379;28;20206;-85
2021/05/09 02:22:17;;;;;;;2.90;2.70;;;8.00;99.90;;;;;;4947900;28;20186;-86
2021/05/09 02:24:44;;;;;;;2.73;2.53;;;8.00;99.90;;;;;;4947705;28;20183;-85
2021/05/09 02:27:10;;;;;;;3.40;3.10;;;8.00;99.90;;;;;;4977961;28;20453;-85
2021/05/09 02:29:36;;;;;;;4.10;3.30;;;8.00;99.90;;;;;;4945033;28;20845;-87
2021/05/09 02:32:01;;;;;;;3.60;3.30;;;8.00;99.90;;;;;;4944219;28;20442;-86
2021/05/09 02:34:27;;;;;;;3.77;3.00;;;7.90;99.90;;;;;;4940041;28;20226;-85
2021/05/09 02:36:53;;;;;;;3.80;3.40;;;7.90;99.90;;;;;;4935672;28;20767;-85
2021/05/09 02:39:18;;;;;;;3.57;3.27;;;8.00;99.90;;;;;;4946459;28;20722;-85
2021/05/09 02:41:44;;;;;;;5.50;2.97;;;8.00;99.90;;;;;;4943759;28;20186;-86
2021/05/09 02:44:11;;;;;;;3.90;3.17;;;8.10;99.90;;;;;;4943386;28;20206;-86
2021/05/09 02:46:36;;;;;;;3.07;2.87;;;8.10;99.90;;;;;;4945076;28;20187;-85
2021/05/09 02:49:03;;;;;;;3.20;2.90;;;8.20;99.90;;;;;;4953914;28;20462;-84
2021/05/09 02:51:29;;;;;;;3.60;3.17;;;8.20;99.90;;;;;;4959753;28;20192;-85
2021/05/09 02:53:55;;;;;;;2.60;2.40;;;8.20;99.90;;;;;;4945410;28;20441;-86
2021/05/09 02:56:20;;;;;;;3.90;2.50;;;8.30;99.90;;;;;;4944280;28;20708;-87
2021/05/09 02:58:46;;;;;;;2.40;2.20;;;8.30;99.90;;;;;;4947917;28;20183;-89
2021/05/09 03:01:14;;;;;;;2.90;2.70;;;8.20;99.90;;;;;;4946736;28;20184;-88
2021/05/09 03:03:40;;;;;;;2.90;2.63;;;8.20;99.90;;;;;;4943628;28;20186;-87
2021/05/09 03:06:06;;;;;;;2.50;2.40;;;8.20;99.90;;;;;;4939757;28;20997;-87
2021/05/09 03:08:33;;;;;;;2.73;2.43;;;8.10;99.90;;;;;;4938469;28;20194;-87
2021/05/09 03:10:59;;;;;;;2.90;2.70;;;8.10;99.90;;;;;;4945908;28;20213;-87
2021/05/09 03:13:25;;;;;;;2.70;2.50;;;8.20;99.90;;;;;;4945171;28;20439;-87
2021/05/09 03:15:50;;;;;;;2.50;2.30;;;8.20;99.90;;;;;;4941634;28;20238;-87
2021/05/09 03:18:16;;;;;;;3.20;2.67;;;8.10;99.90;;;;;;4946078;28;20187;-87
2021/05/09 03:20:42;;;;;;;3.17;2.87;;;8.10;99.90;;;;;;4946764;28;20249;-87
2021/05/09 03:23:07;;;;;;;3.37;3.07;;;8.00;99.90;;;;;;4950322;28;20190;-87
2021/05/09 03:25:35;;;;;;;3.20;3.00;;;8.10;99.90;;;;;;4939781;28;20637;-87
2021/05/09 03:28:01;;;;;;;3.40;3.10;;;8.10;99.90;;;;;;4947648;28;20229;-87
2021/05/09 03:30:27;;;;;;;3.90;3.60;;;8.10;99.90;;;;;;4943116;28;20508;-87
2021/05/09 03:32:55;;;;;;;3.17;2.97;;;8.10;99.90;;;;;;4944416;28;20617;-87
2021/05/09 03:35:22;;;;;;;3.83;3.53;;;8.20;99.90;;;;;;4942970;28;20219;-87
2021/05/09 03:37:47;;;;;;;3.60;3.30;;;8.10;99.90;;;;;;4942361;28;21009;-87
2021/05/09 03:40:13;;;;;;;3.50;3.20;;;8.20;99.90;;;;;;4937737;28;20488;-87
2021/05/09 03:42:39;;;;;;;2.83;2.63;;;8.20;99.90;;;;;;4939295;28;20376;-86
2021/05/09 03:45:06;;;;;;;3.37;3.17;;;8.20;99.90;;;;;;4937447;28;21031;-86
2021/05/09 03:47:33;;;;;;;3.03;2.83;;;8.10;99.90;;;;;;4961546;28;20221;-87
2021/05/09 03:49:59;;;;;;;3.20;3.00;;;8.10;99.90;;;;;;4946941;28;20484;-87
2021/05/09 03:52:25;;;;;;;3.60;3.30;;;8.00;99.90;;;;;;4926821;28;20450;-85
2021/05/09 03:54:51;;;;;;;4.00;3.10;;;8.10;99.90;;;;;;4957240;28;20485;-85
2021/05/09 03:57:16;;;;;;;3.40;3.20;;;8.00;99.90;;;;;;4937128;28;21021;-86
2021/05/09 03:59:42;;;;;;;2.90;2.70;;;8.00;99.90;;;;;;4941385;28;20237;-86
2021/05/09 04:02:08;;;;;;;3.87;3.47;;;8.00;99.90;;;;;;4932113;28;20448;-86
2021/05/09 04:04:34;;;;;;;3.47;3.13;;;8.10;99.90;;;;;;4934008;28;20228;-86
2021/05/09 04:06:59;;;;;;;3.30;3.00;;;8.10;99.90;;;;;;4929590;28;20202;-86
2021/05/09 04:09:25;;;;;;;3.20;3.00;;;8.10;99.90;;;;;;4946991;28;20648;-87
2021/05/09 04:11:51;;;;;;;2.90;2.70;;;8.20;99.90;;;;;;4947072;28;20202;-87
2021/05/09 04:14:17;;;;;;;3.30;3.10;;;8.20;99.90;;;;;;4957607;28;20231;-86
2021/05/09 04:16:43;;;;;;;2.90;2.70;;;8.30;99.90;;;;;;4938902;28;20281;-85
2021/05/09 04:19:09;;;;;;;3.10;2.90;;;8.30;99.90;;;;;;4928625;28;20446;-86
2021/05/09 04:21:34;;;;;;;3.53;3.23;;;8.40;99.90;;;;;;4932103;28;21138;-87
2021/05/09 04:24:00;;;;;;;2.90;2.70;;;8.50;99.90;;;;;;4957166;28;20511;-85
2021/05/09 04:26:26;;;;;;;3.23;2.93;;;8.60;99.90;;;;;;4934419;28;20194;-85
2021/05/09 04:28:51;;;;;;;3.60;2.87;;;8.80;99.90;;;;;;4940804;28;20284;-85
2021/05/09 04:31:17;;;;;;;3.50;3.30;;;8.90;99.90;;;;;;4944469;28;20196;-84
2021/05/09 04:33:43;;;;;;;4.10;3.80;;;9.00;99.90;;;;;;4942659;28;21315;-84
2021/05/09 04:36:09;;;;;;;4.13;3.73;;;9.00;99.90;;;;;;4941123;28;21511;-84
2021/05/09 04:38:35;;;;;;;4.57;4.17;;;9.10;99.90;;;;;;4943177;28;20754;-84
2021/05/09 04:41:01;;;;;;;4.20;3.80;;;9.20;99.90;;;;;;4947081;28;20752;-83
2021/05/09 04:43:27;;;;;;;4.10;3.80;;;9.20;99.90;;;;;;4942042;28;20204;-84
2021/05/09 04:45:54;;;;;;;4.43;3.77;;;9.30;99.90;;;;;;4942501;28;20307;-84
2021/05/09 04:48:21;;;;;;;4.00;3.60;;;9.30;99.90;;;;;;4959698;28;20191;-84
2021/05/09 04:50:47;;;;;;;3.93;3.63;;;9.40;99.90;;;;;;4942590;28;20965;-84
2021/05/09 04:53:31;;;;;;;4.13;3.70;;;9.40;99.90;;;;;;4941521;28;20456;-85
2021/05/09 04:55:58;;;;;;;4.13;3.80;;;9.50;99.90;;;;;;4975896;28;20278;-87
2021/05/09 04:58:28;;;;;;;4.87;3.80;;;9.50;99.90;;;;;;4942164;28;20538;-85
2021/05/09 05:00:58;;;;;;;3.60;3.33;;;9.50;99.90;;;;;;4936727;28;20545;-85
2021/05/09 05:03:23;;;;;;;4.73;4.33;;;9.50;99.90;;;;;;4939335;28;20436;-85
2021/05/09 05:05:49;;;;;;;4.17;3.77;;;9.50;99.90;;;;;;4934468;28;20473;-85
2021/05/09 05:08:15;;;;;;;4.50;4.10;;;9.40;99.90;;;;;;4935398;28;20188;-88
2021/05/09 05:10:41;;;;;;;3.90;3.63;;;9.40;99.90;;;;;;4944888;28;20187;-86
2021/05/09 05:13:27;;;;;;;4.20;3.90;;;9.40;99.90;;;;;;4943609;28;20451;-86
2021/05/09 05:15:54;;;;;;;4.20;3.90;;;9.40;99.90;;;;;;4942836;28;20640;-85
2021/05/09 05:18:23;;;;;;;4.50;4.20;;;9.40;99.90;;;;;;4942632;28;20441;-85
2021/05/09 05:20:49;;;;;;;4.60;4.20;;;9.40;99.90;;;;;;4942489;28;20956;-84
2021/05/09 05:23:15;;;;;;;5.10;4.00;;;9.50;99.90;;;;;;4943468;28;20512;-84
2021/05/09 05:25:44;;;;;;;4.10;3.57;;;9.50;99.90;;;;;;4937035;28;20443;-85
2021/05/09 05:28:10;;;;;;;4.93;4.33;;;9.50;99.90;;;;;;4929079;28;20455;-86
2021/05/09 05:30:37;;;;;;;5.00;4.60;;;9.60;99.90;;;;;;4939600;28;20475;-87
2021/05/09 05:33:03;;;;;;;4.13;3.83;;;9.70;99.90;;;;;;4938761;28;20465;-86
2021/05/09 05:35:29;;;;;;;5.00;4.50;;;9.70;99.90;;;;;;4977273;28;20937;-88
2021/05/09 05:37:57;;;;;;;5.20;3.77;;;9.90;99.90;;;;;;4936434;28;20466;-85
2021/05/09 05:40:23;;;;;;;4.43;4.13;;;10.10;99.90;;;;;;4973326;28;20225;-86
2021/05/09 05:42:50;;;;;;;4.37;4.07;;;10.30;99.90;;;;;;4945008;28;20435;-86
2021/05/09 05:45:16;;;;;;;5.00;4.60;;;10.50;99.90;;;;;;4946211;28;20553;-87
2021/05/09 05:47:42;;;;;;;4.80;4.30;;;10.70;99.90;;;;;;4942873;28;20543;-87
2021/05/09 05:50:09;;;;;;;4.90;4.53;;;10.80;99.90;;;;;;4940160;28;20881;-86
2021/05/09 05:52:35;;;;;;;4.70;4.30;;;11.00;99.90;;;;;;4958779;28;20219;-87
2021/05/09 05:55:00;;;;;;;4.70;4.30;;;11.10;99.90;;;;;;4945637;28;21003;-86
2021/05/09 05:57:26;;;;;;;4.47;4.17;;;11.30;99.90;;;;;;4945070;28;20635;-88
2021/05/09 05:59:52;;;;;;;4.77;4.37;;;11.40;99.90;;;;;;4942367;28;20268;-87
2021/05/09 06:02:18;;;;;;;5.20;4.73;;;11.60;99.90;;;;;;4944183;28;20229;-86
2021/05/09 06:04:45;;;;;;;4.93;4.40;;;11.70;99.90;;;;;;4944014;28;20197;-86
2021/05/09 06:07:12;;;;;;;4.70;4.30;;;11.80;99.90;;;;;;4940578;28;20715;-87
2021/05/09 06:09:41;;;;;;;4.27;3.87;;;11.90;99.90;;;;;;4963970;28;20447;-86
2021/05/09 06:12:08;;;;;;;4.60;4.30;;;12.00;99.90;;;;;;4944060;28;20452;-86
2021/05/09 06:14:34;;;;;;;3.97;3.67;;;12.10;99.90;;;;;;4944150;28;20493;-85
2021/05/09 06:16:59;;;;;;;4.03;3.73;;;12.30;99.90;;;;;;4944848;28;20537;-84
2021/05/09 06:19:25;;;;;;;4.30;3.90;;;12.50;99.90;;;;;;4944046;28;20281;-87
2021/05/09 06:21:51;;;;;;;3.60;3.30;;;12.80;99.90;;;;;;4942296;28;20225;-87
2021/05/09 06:24:17;;;;;;;3.93;3.63;;;13.00;99.90;;;;;;4945090;28;20608;-86
2021/05/09 06:26:42;;;;;;;3.70;3.43;;;13.20;99.90;;;;;;4948128;28;20201;-85
2021/05/09 06:29:08;;;;;;;3.00;2.80;;;13.40;99.90;;;;;;4947269;28;20205;-85
2021/05/09 06:31:34;;;;;;;2.70;2.50;;;13.50;99.90;;;;;;4944571;28;20193;-86
2021/05/09 06:34:00;;;;;;;2.90;2.67;;;13.70;99.90;;;;;;4943622;28;20461;-87
2021/05/09 06:36:26;;;;;;;5.40;2.60;;;13.90;99.90;;;;;;4946632;28;20198;-86
2021/05/09 06:38:52;;;;;;;3.37;2.40;;;14.10;99.90;;;;;;4959134;28;20645;-88
2021/05/09 06:41:19;;;;;;;3.00;2.70;;;14.20;99.90;;;;;;4963508;28;20450;-86
2021/05/09 06:43:45;;;;;;;6.07;2.87;;;14.40;99.90;;;;;;4929034;28;20434;-86
2021/05/09 06:46:11;;;;;;;2.47;2.27;;;14.60;99.90;;;;;;4945758;28;20772;-86
2021/05/09 06:48:37;;;;;;;3.17;2.60;;;14.90;99.90;;;;;;4944820;28;20187;-85
2021/05/09 06:51:03;;;;;;;3.17;2.57;;;15.00;99.90;;;;;;4943382;28;20317;-87
2021/05/09 06:53:29;;;;;;;3.27;3.07;;;15.30;99.90;;;;;;4928406;29;20581;-87
2021/05/09 06:55:58;;;;;;;5.87;3.90;;;15.40;99.90;;;;;;4942111;28;20512;-87
2021/05/09 06:58:26;;;;;;;3.70;2.70;;;15.50;99.90;;;;;;4961395;28;20197;-87
2021/05/09 07:00:53;;;;;;;5.27;3.27;;;15.50;99.90;;;;;;4934455;28;20509;-87
2021/05/09 07:03:19;;;;;;;2.87;2.67;;;15.70;99.90;;;;;;4946148;28;20584;-85
2021/05/09 07:05:44;;;;;;;3.20;2.60;;;15.90;99.90;;;;;;4955278;28;20545;-85
2021/05/09 07:08:11;;;;;;;2.20;2.03;;;16.10;99.90;;;;;;4961469;28;20779;-85
2021/05/09 07:10:37;;;;;;;2.43;2.00;;;16.30;99.90;;;;;;4947964;28;20445;-86
2021/05/09 07:13:04;;;;;;;2.10;2.00;;;16.50;99.90;;;;;;4943472;28;20565;-86
2021/05/09 07:15:35;;;;;;;2.20;2.10;;;16.60;97.80;;;;;;4957904;28;20488;-84
2021/05/09 07:18:12;;;;;;;2.00;1.80;;;16.70;97.80;;;;;;4940022;28;20434;-85
2021/05/09 07:20:46;;;;;;;2.50;2.00;;;16.70;97.00;;;;;;4962433;28;20441;-85
2021/05/09 07:23:16;;;;;;;2.03;1.93;;;16.80;97.50;;;;;;4944609;28;20448;-85
2021/05/09 07:25:42;;;;;;;2.00;1.90;;;17.00;96.80;;;;;;4942579;28;20454;-85
2021/05/09 07:28:10;;;;;;;2.83;2.63;;;17.20;96.00;;;;;;4944284;28;20456;-87
2021/05/09 07:30:38;;;;;;;1.50;1.40;;;17.40;95.40;;;;;;4944192;28;20205;-84
2021/05/09 07:33:04;;;;;;;2.20;2.00;;;17.50;94.50;;;;;;4943342;28;20464;-85
2021/05/09 07:35:30;;;;;;;1.80;1.70;;;17.70;94.10;;;;;;4943246;28;20493;-85
2021/05/09 07:38:00;;;;;;;1.80;1.70;;;17.90;93.30;;;;;;4942970;28;20453;-87
2021/05/09 07:40:26;;;;;;;1.60;1.50;;;18.10;92.70;;;;;;4940249;28;20456;-86
2021/05/09 07:42:52;;;;;;;2.60;1.97;;;18.20;92.20;;;;;;4942881;28;20788;-91
2021/05/09 07:45:22;;;;;;;1.63;1.53;;;18.30;92.20;;;;;;4942657;28;20567;-90
2021/05/09 07:47:48;;;;;;;2.23;1.70;;;18.50;92.30;;;;;;4940277;28;20187;-88
2021/05/09 07:53:36;;;;;;;2.10;1.60;;;18.80;92.40;;;;;;4952213;28;20252;-94
2021/05/09 07:56:10;;;;;;;2.83;2.00;;;19.00;92.10;;;;;;4945427;28;20895;-94
2021/05/09 07:58:36;;;;;;;1.60;1.50;;;19.10;91.90;;;;;;4963135;28;20190;-93
2021/05/09 08:01:03;;;;;;;1.83;1.50;;;19.40;92.00;;;;;;4946964;28;20460;-94
2021/05/09 08:03:29;;;;;;;2.00;1.90;;;19.60;90.60;;;;;;4945418;28;20541;-90
2021/05/09 08:05:55;;;;;;;1.80;1.70;;;19.70;90.60;;;;;;4944771;28;20529;-91
2021/05/09 08:08:29;;;;;;;1.73;1.63;;;19.90;88.20;;;;;;4963211;28;20625;-94
2021/05/09 08:10:54;;;;;;;1.70;1.60;;;20.10;88.40;;;;;;4961839;28;20496;-90
2021/05/09 08:13:20;;;;;;;2.23;1.70;;;20.20;87.90;;;;;;4946631;28;20438;-91
2021/05/09 08:15:46;;;;;;;1.70;1.60;;;20.40;88.80;;;;;;4922709;28;20199;-90
2021/05/09 08:18:12;;;;;;;2.60;2.23;;;20.60;89.10;;;;;;4971001;28;20994;-90
2021/05/09 08:21:02;;;;;;;2.33;1.50;;;20.80;88.30;;;;;;4941431;28;20203;-93
2021/05/09 08:23:38;;;;;;;2.33;1.63;;;21.00;86.80;;;;;;4940888;28;20752;-95
2021/05/09 08:26:04;;;;;;;2.23;1.93;;;21.20;87.70;;;;;;4938544;28;20995;-96
2021/05/09 08:28:30;;;;;;;1.80;1.60;;;21.30;87.90;;;;;;4944766;28;20437;-93
2021/05/09 08:30:56;;;;;;;2.10;1.57;;;21.40;85.30;;;;;;4944330;28;20214;-94
2021/05/09 08:33:24;;;;;;;1.80;1.70;;;21.50;85.50;;;;;;4950322;28;20485;-93
2021/05/09 08:35:52;;;;;;;3.33;2.33;;;21.60;85.90;;;;;;4966026;28;20216;-95
2021/05/09 08:38:17;;;;;;;2.30;1.80;;;21.60;86.80;;;;;;4942550;28;20484;-92
2021/05/09 08:40:43;;;;;;;2.13;1.93;;;21.80;87.90;;;;;;4934423;28;20862;-90
2021/05/09 08:43:09;;;;;;;1.90;1.80;;;21.90;85.30;;;;;;4958310;28;20223;-88
2021/05/09 08:45:34;;;;;;;2.13;1.93;;;22.10;86.30;;;;;;4945841;28;20221;-92
2021/05/09 08:48:01;;;;;;;1.90;1.80;;;22.30;84.60;;;;;;4956259;28;20680;-90
2021/05/09 08:50:28;;;;;;;2.33;2.07;;;22.40;87.50;;;;;;4948097;28;20245;-90
2021/05/09 08:52:55;;;;;;;1.80;1.70;;;22.60;85.90;;;;;;4949027;28;20765;-92
2021/05/09 08:55:26;;;;;;;2.33;2.13;;;22.80;83.50;;;;;;4947105;28;20532;-90
2021/05/09 08:57:54;;;;;;;1.80;1.60;;;22.90;82.90;;;;;;4945971;28;20434;-91
2021/05/09 09:00:20;;;;;;;1.63;1.53;;;23.10;79.10;;;;;;4956982;28;20460;-90
2021/05/09 09:02:46;;;;;;;1.80;1.70;;;23.20;78.70;;;;;;4934513;28;20457;-91
2021/05/09 09:05:13;;;;;;;2.50;1.80;;;23.40;77.20;;;;;;4955264;28;20491;-91
2021/05/09 09:07:51;;;;;;;2.00;1.80;;;23.50;78.30;;;;;;4940981;28;20293;-91
2021/05/09 09:10:32;;;;;;;4.27;1.50;;;23.70;76.20;;;;;;4940086;28;20460;-91
2021/05/09 09:13:02;;;;;;;1.97;1.50;;;23.80;73.60;;;;;;4929560;28;20579;-93
2021/05/09 09:15:57;;;;;;;1.70;1.60;;;23.80;71.20;;;;;;4943750;28;20927;-92
2021/05/09 09:18:48;;;;;;;2.90;1.87;;;23.90;71.70;;;;;;4943962;28;20801;-90
2021/05/09 09:21:31;;;;;;;2.50;1.70;;;24.00;70.00;;;;;;4944643;28;20528;-89
2021/05/09 09:24:07;;;;;;;2.50;1.83;;;24.20;68.00;;;;;;4944300;28;20450;-92
2021/05/09 09:26:54;;;;;;;1.83;1.70;;;24.40;66.80;;;;;;4945118;28;20441;-92
2021/05/09 09:29:36;;;;;;;1.70;1.60;;;24.50;64.40;;;;;;4940085;28;20508;-92
2021/05/09 09:32:10;;;;;;;2.13;1.93;;;24.70;61.30;;;;;;4941399;28;20509;-89
2021/05/09 09:34:45;;;;;;;1.53;1.43;;;24.90;61.30;;;;;;4942869;28;20453;-90
2021/05/09 09:37:14;;;;;;;1.97;1.87;;;25.00;56.20;;;;;;4940374;28;20452;-90
2021/05/09 09:39:59;;;;;;;1.67;1.57;;;25.20;59.10;;;;;;4942357;28;20851;-92
2021/05/09 09:42:47;;;;;;;1.60;1.50;;;25.30;57.40;;;;;;4957150;28;20529;-91
2021/05/09 09:45:25;;;;;;;2.30;1.53;;;25.50;56.20;;;;;;4931520;28;20479;-92
2021/05/09 09:47:57;;;;;;;1.70;1.60;;;25.80;53.60;;;;;;4939197;28;20457;-89
2021/05/09 09:50:43;;;;;;;2.00;1.77;;;25.60;53.70;;;;;;4945871;28;20456;-91
2021/05/09 09:53:28;;;;;;;1.93;1.83;;;25.80;53.70;;;;;;4938087;28;20457;-91
2021/05/09 09:56:13;;;;;;;1.60;1.50;;;25.90;54.20;;;;;;4931090;28;20442;-89
2021/05/09 09:58:45;;;;;;;1.87;1.77;;;26.00;55.10;;;;;;4937085;28;20501;-91
2021/05/09 10:01:24;;;;;;;2.27;2.07;;;26.30;51.70;;;;;;4941362;28;21014;-95
2021/05/09 10:03:54;;;;;;;1.63;1.53;;;26.50;52.70;;;;;;4937424;28;20810;-92
2021/05/09 10:06:21;;;;;;;1.90;1.50;;;26.50;56.10;;;;;;4963614;28;20540;-92
2021/05/09 10:08:50;;;;;;;2.80;2.17;;;26.60;53.20;;;;;;4931970;28;20452;-91
2021/05/09 10:11:19;;;;;;;1.57;1.47;;;26.80;49.30;;;;;;4952053;28;20461;-90
2021/05/09 10:13:49;;;;;;;2.13;1.93;;;26.90;52.30;;;;;;4944412;28;20961;-92
2021/05/09 10:16:23;;;;;;;3.27;1.90;;;27.00;53.80;;;;;;4942544;28;20437;-92
2021/05/09 10:18:53;;;;;;;1.73;1.50;;;27.30;48.00;;;;;;4942441;28;20436;-90
2021/05/09 10:21:28;;;;;;;1.90;1.80;;;27.20;46.00;;;;;;4933248;28;20939;-92
2021/05/09 10:24:22;;;;;;;1.30;1.30;;;27.30;46.20;;;;;;4957225;28;20597;-92
2021/05/09 10:27:05;;;;;;;1.80;1.70;;;27.20;43.70;;;;;;4942487;28;20601;-95
2021/05/09 10:29:33;;;;;;;1.67;1.27;;;27.30;42.80;;;;;;4962518;28;20461;-94
2021/05/09 10:32:00;;;;;;;1.80;1.63;;;26.90;42.30;;;;;;4960732;28;20856;-93
2021/05/09 10:34:57;;;;;;;1.30;1.20;;;27.10;44.50;;;;;;4939801;28;20871;-92
2021/05/09 10:37:35;;;;;;;1.97;1.23;;;27.30;40.20;;;;;;4959806;28;20441;-92
2021/05/09 10:40:17;;;;;;;1.33;1.23;;;27.40;37.40;;;;;;4940365;28;20471;-93
2021/05/09 10:42:42;;;;;;;1.40;1.30;;;27.40;38.00;;;;;;4961368;28;20967;-92
2021/05/09 10:45:27;;;;;;;1.30;1.20;;;27.60;35.90;;;;;;4946423;28;20529;-91
2021/05/09 10:48:32;;;;;;;1.80;1.40;;;27.70;37.50;;;;;;4942807;28;20205;-94
2021/05/09 10:51:01;;;;;;;2.03;1.33;;;27.60;37.80;;;;;;4975676;28;20465;-91
2021/05/09 10:53:36;;;;;;;2.10;2.00;;;27.80;37.00;;;;;;4942296;28;20438;-89
2021/05/09 10:56:06;;;;;;;1.50;1.30;;;28.10;38.70;;;;;;4941670;28;20819;-91
2021/05/09 10:58:48;;;;;;;1.33;1.30;;;28.20;36.90;;;;;;4940444;28;20447;-90
2021/05/09 11:01:17;;;;;;;2.07;1.50;;;28.20;38.10;;;;;;4957033;28;20449;-90
2021/05/09 11:03:42;;;;;;;1.43;1.33;;;28.10;37.90;;;;;;4945131;28;20445;-90
2021/05/09 11:06:10;;;;;;;1.40;1.30;;;28.00;35.70;;;;;;4943547;28;20840;-89
2021/05/09 11:08:45;;;;;;;1.00;1.00;;;27.80;33.80;;;;;;4940136;28;20277;-87
2021/05/09 11:11:26;;;;;;;31.53;29.20;;;28.10;35.90;;;;;;4940729;28;20453;-88
2021/05/09 11:13:58;;;;;;;1.50;1.27;;;28.50;36.70;;;;;;4941205;28;20441;-88
2021/05/09 11:16:45;;;;;;;1.70;1.60;;;28.50;33.80;;;;;;4942279;28;20534;-90
2021/05/09 11:19:18;;;;;;;1.77;1.27;;;28.80;34.10;;;;;;4944055;28;20449;-91
2021/05/09 11:22:08;;;;;;;1.20;1.20;;;28.90;35.50;;;;;;4942991;28;20512;-90
2021/05/09 11:24:36;;;;;;;2.20;1.13;;;28.80;34.20;;;;;;4947452;28;20996;-90
2021/05/09 11:27:11;;;;;;;0.83;0.83;;;29.00;32.30;;;;;;4943554;28;20839;-91
2021/05/09 11:29:41;;;;;;;1.40;1.30;;;29.00;32.50;;;;;;4956581;28;20453;-90
2021/05/09 11:32:15;;;;;;;1.43;1.10;;;28.80;32.90;;;;;;4943389;28;20461;-89
2021/05/09 11:35:00;;;;;;;2.50;1.20;;;28.70;33.30;;;;;;4940659;28;20528;-92
2021/05/09 11:37:39;;;;;;;1.00;1.00;;;28.70;32.40;;;;;;4943730;28;20477;-93
2021/05/09 11:40:10;;;;;;;1.27;1.17;;;29.00;33.70;;;;;;4941306;28;20452;-93
2021/05/09 11:42:38;;;;;;;1.07;1.07;;;29.40;32.70;;;;;;4945669;28;20449;-91
2021/05/09 11:45:04;;;;;;;1.23;1.10;;;29.00;32.50;;;;;;4941867;28;20493;-89
2021/05/09 11:47:33;;;;;;;1.20;1.20;;;29.10;32.50;;;;;;4941551;28;20531;-92
2021/05/09 11:50:01;;;;;;;1.07;0.90;;;29.20;31.20;;;;;;4942685;28;20986;-90
2021/05/09 11:52:33;;;;;;;1.00;1.00;;;29.30;31.20;;;;;;4945798;28;20474;-96
2021/05/09 11:55:03;;;;;;;2.60;1.90;;;29.40;31.10;;;;;;4946489;28;20980;-96
2021/05/09 11:57:30;;;;;;;1.60;1.50;;;29.60;31.90;;;;;;4944987;28;20450;-92
2021/05/09 12:00:01;;;;;;;1.30;1.07;;;29.50;31.40;;;;;;4945470;28;20796;-92
2021/05/09 12:02:39;;;;;;;3.53;1.10;;;29.90;32.30;;;;;;4945422;28;20454;-96
2021/05/09 12:05:15;;;;;;;1.60;1.50;;;30.00;31.40;;;;;;4943902;28;20495;-96
2021/05/09 12:08:00;;;;;;;2.30;1.30;;;30.30;30.70;;;;;;4945620;28;20554;-95
2021/05/09 12:10:55;;;;;;;1.37;1.27;;;30.10;31.00;;;;;;4980199;28;20450;-96
2021/05/09 12:13:21;;;;;;;1.50;1.40;;;30.20;29.70;;;;;;4961797;28;20977;-96
2021/05/09 12:15:50;;;;;;;1.50;1.30;;;30.40;35.00;;;;;;4951781;28;20438;-96
2021/05/09 12:18:23;;;;;;;1.60;1.50;;;30.40;30.40;;;;;;4951789;28;20206;-96
2021/05/09 12:20:48;;;;;;;1.30;1.20;;;30.40;30.00;;;;;;4955328;28;20437;-96
2021/05/09 12:23:20;;;;;;;1.47;1.30;;;30.20;29.60;;;;;;4954628;28;20524;-96
2021/05/09 12:25:49;;;;;;;2.50;2.30;;;30.50;30.10;;;;;;4956020;28;20237;-95
2021/05/09 12:28:38;;;;;;;1.10;1.10;;;30.50;29.60;;;;;;4932206;28;20529;-96
2021/05/09 12:31:14;;;;;;;1.40;1.30;;;30.30;29.80;;;;;;4981530;28;20462;-96
2021/05/09 13:09:59;;;;;;;2.03;1.10;;;31.10;28.70;;;;;;4936300;28;20509;-93
2021/05/09 13:12:37;;;;;;;1.27;1.27;;;30.80;29.30;;;;;;4954044;28;20446;-90
2021/05/09 13:15:19;;;;;;;1.30;1.20;;;30.70;29.20;;;;;;4939956;28;20483;-92
2021/05/09 13:17:45;;;;;;;3.23;1.50;;;30.80;29.10;;;;;;4940010;28;20992;-89
2021/05/09 13:20:15;;;;;;;1.60;1.30;;;31.10;32.00;;;;;;4942624;28;21921;-94
2021/05/09 13:22:41;;;;;;;1.23;1.13;;;31.60;36.80;;;;;;4944674;28;20553;-90
2021/05/09 13:25:08;;;;;;;1.10;1.10;;;31.80;34.10;;;;;;4944431;28;20883;-90
2021/05/09 13:27:35;;;;;;;2.00;1.37;;;31.50;32.10;;;;;;4942022;28;20442;-91
2021/05/09 13:30:04;;;;;;;1.83;1.10;;;32.20;32.80;;;;;;4944719;28;20503;-89
2021/05/09 13:32:30;;;;;;;1.20;1.00;;;33.10;27.30;;;;;;4960292;28;20439;-89
2021/05/09 13:34:56;;;;;;;2.87;2.63;;;33.30;27.40;;;;;;4948492;28;20457;-91
2021/05/09 13:37:22;;;;;;;5.03;4.63;;;33.90;30.80;;;;;;4944160;28;20199;-91
2021/05/09 13:39:53;;;;;;;3.03;1.33;;;34.40;32.40;;;;;;4943083;28;20658;-91